Weather observations for the past three days for
Frankfort, Frankfort Dow Memorial Field Airport
| Date | Time (edt) | Wind (mph) | Vis. (mi.) | Weather | Sky Cond. | Temperature (ºF) | Relative Humidity | Wind Chill (°F) | Heat Index (°F) | Pressure | Precipitation (in) | ||||||
|---|---|---|---|---|---|---|---|---|---|---|---|---|---|---|---|---|---|
| Air | Dwpt | 6 hour | altimeter (in) | sea level (mb) | 1 hr | 3 hr | 6 hr | ||||||||||
| Max. | Min. | ||||||||||||||||
| 05 | 23:35 | E 5 | 10.00 | Fair | CLR | 66.2 | 57.2 | 73% | 30.07 | 0.0 | |||||||
| 05 | 23:15 | E 3 | 10.00 | Fair | CLR | 68 | 57.2 | 69% | 30.07 | 0.0 | |||||||
| 05 | 22:55 | E 5 | 10.00 | Fair | CLR | 68 | 57.2 | 69% | 30.06 | 0.0 | |||||||
| 05 | 22:35 | E 5 | 10.00 | Fair | CLR | 68 | 57.2 | 69% | 30.06 | 0.0 | |||||||
| 05 | 22:15 | Vrbl 6 | 10.00 | Fair | CLR | 69.8 | 57.2 | 64% | 30.06 | 0.0 | |||||||
| 05 | 21:55 | NE 6 | 10.00 | Fair | CLR | 69.8 | 57.2 | 64% | 30.05 | 0.0 | |||||||
| 05 | 21:35 | NE 6 | 10.00 | Fair | CLR | 69.8 | 57.2 | 64% | 30.05 | 0.0 | |||||||
| 05 | 21:15 | NE 3 | 10.00 | Fair | CLR | 69.8 | 57.2 | 64% | 30.05 | 0.0 | |||||||
| 05 | 20:55 | Vrbl 5 | 10.00 | Fair | CLR | 69.8 | 59 | 69% | 30.04 | 0.0 | |||||||
| 05 | 20:35 | NE 5 | 10.00 | Fair | CLR | 69.8 | 59 | 69% | 30.04 | 0.0 | |||||||
| 05 | 20:15 | NE 5 | 10.00 | Fair | CLR | 69.8 | 59 | 69% | 30.04 | 0.0 | |||||||
| 05 | 19:55 | Vrbl 5 | 10.00 | Fair | CLR | 71.6 | 59 | 79.2 | 71.2 | 65% | 30.03 | 0.0 | |||||
| 05 | 19:35 | Vrbl 5 | 10.00 | Fair | CLR | 71.6 | 59 | 65% | 30.04 | 0.0 | |||||||
| 05 | 19:15 | N 3 | 10.00 | Fair | CLR | 73.4 | 60.8 | 65% | 30.04 | 0.0 | |||||||
| 05 | 18:55 | Vrbl 6 | 10.00 | Fair | CLR | 73.4 | 60.8 | 65% | 30.04 | 0.0 | |||||||
| 05 | 18:35 | N 7 | 10.00 | Fair | CLR | 75.2 | 59 | 57% | 78 | 30.03 | 0.0 | ||||||
| 05 | 18:15 | Vrbl 7 | 10.00 | Fair | CLR | 75.2 | 60.8 | 61% | 77 | 30.02 | 0.0 | ||||||
| 05 | 17:55 | N 9 | 10.00 | Fair | CLR | 75.2 | 62.6 | 65% | 77 | 30.02 | 0.0 | ||||||
| 05 | 17:35 | N 7 | 10.00 | Fair | CLR | 77 | 62.6 | 61% | 79 | 30.02 | 0.0 | ||||||
| 05 | 17:15 | N 9 | 10.00 | Fair | CLR | 77 | 62.6 | 61% | 79 | 30.02 | 0.0 | ||||||
| 05 | 16:55 | Vrbl 5 | 10.00 | Fair | CLR | 77 | 62.6 | 61% | 79 | 30.02 | 0.0 | ||||||
| 05 | 16:35 | Vrbl 6 | 10.00 | Fair | CLR | 78.8 | 62.6 | 58% | 80 | 30.02 | 0.0 | ||||||
| 05 | 16:15 | N 8 | 10.00 | Fair | CLR | 78.8 | 64.4 | 61% | 81 | 30.01 | 0.0 | ||||||
| 05 | 15:55 | Vrbl 7 | 10.00 | Fair | CLR | 78.8 | 64.4 | 61% | 81 | 30.01 | 0.0 | ||||||
| 05 | 13:55 | N 7 | 10.00 | Fair | CLR | 77 | 64.4 | 77.9 | 65.1 | 65% | 79 | 30.04 | 0.0 | ||||
| 05 | 13:35 | N 8 | 10.00 | Fair | CLR | 77 | 62.6 | 61% | 79 | 30.04 | 0.0 | ||||||
| 05 | 13:15 | Vrbl 6 | 10.00 | Fair | CLR | 77 | 62.6 | 61% | 79 | 30.04 | 0.0 | ||||||
| 05 | 12:55 | Vrbl 6 | 10.00 | Fair | CLR | 77 | 60.8 | 57% | 79 | 30.04 | 0.0 | ||||||
| 05 | 12:35 | Vrbl 7 | 10.00 | Fair | CLR | 77 | 60.8 | 57% | 79 | 30.04 | 0.0 | ||||||
| 05 | 12:15 | NE 7 | 10.00 | Fair | CLR | 75.2 | 60.8 | 61% | 77 | 30.04 | 0.0 | ||||||
| 05 | 11:55 | Vrbl 6 | 10.00 | Fair | CLR | 75.2 | 60.8 | 61% | 77 | 30.05 | 0.0 | ||||||
| 05 | 11:35 | Vrbl 6 | 10.00 | Fair | CLR | 75.2 | 60.8 | 61% | 77 | 30.04 | 0.0 | ||||||
| 05 | 11:15 | Vrbl 6 | 10.00 | Fair | CLR | 73.4 | 60.8 | 65% | 30.05 | 0.0 | |||||||
| 05 | 10:55 | E 7 | 10.00 | Fair | CLR | 73.4 | 60.8 | 65% | 30.04 | 0.0 | |||||||
| 05 | 10:35 | E 8 | 10.00 | Fair | CLR | 71.6 | 60.8 | 69% | 30.04 | 0.0 | |||||||
| 05 | 10:15 | SE 6 | 10.00 | Fair | CLR | 71.6 | 60.8 | 69% | 30.03 | 0.0 | |||||||
| 05 | 09:55 | E 7 | 10.00 | Fair | CLR | 69.8 | 60.8 | 73% | 30.02 | 0.0 | |||||||
| 05 | 09:35 | E 8 | 10.00 | Fair | CLR | 69.8 | 62.6 | 78% | 30.02 | 0.0 | |||||||
| 05 | 09:15 | Vrbl 5 | 10.00 | Partly Cloudy | SCT041 | 68 | 62.6 | 83% | 30.01 | 0.0 | |||||||
| 05 | 08:55 | E 5 | 10.00 | Overcast | OVC041 | 68 | 62.6 | 83% | 30.01 | 0.0 | |||||||
| 05 | 08:35 | NE 6 | 10.00 | Mostly Cloudy | BKN041 | 66.2 | 62.6 | 88% | 30.01 | 0.0 | |||||||
| 05 | 08:15 | E 6 | 10.00 | Partly Cloudy | FEW041 SCT049 | 66.2 | 62.6 | 88% | 30 | 0.0 | |||||||
| 05 | 07:55 | E 5 | 10.00 | A Few Clouds | FEW032 FEW070 | 66.2 | 62.6 | 70.3 | 65.1 | 88% | 30 | 0.0 | |||||
| 05 | 07:35 | Vrbl 6 | 10.00 | Overcast | BKN032 OVC070 | 66.2 | 62.6 | 88% | 29.99 | 0.0 | |||||||
| 05 | 07:15 | E 7 | 10.00 | Overcast | FEW023 OVC034 | 66.2 | 62.6 | 88% | 29.99 | 0.0 | |||||||
| 05 | 06:55 | E 8 | 10.00 | Overcast | SCT023 BKN029 OVC070 | 66.2 | 62.6 | 88% | 29.98 | 0.0 | |||||||
| 05 | 06:35 | E 7 | 10.00 | Overcast | SCT028 BKN043 OVC070 | 66.2 | 64.4 | 94% | 29.98 | 0.0 | |||||||
| 05 | 06:15 | E 7 | 10.00 | Overcast | OVC026 | 66.2 | 64.4 | 94% | 29.98 | 0.0 | |||||||
| 05 | 05:55 | E 8 | 10.00 | Overcast | OVC024 | 66.2 | 64.4 | 94% | 29.98 | 0.0 | |||||||
| 05 | 05:35 | Vrbl 6 | 10.00 | Overcast | SCT007 OVC024 | 68 | 64.4 | 88% | 29.98 | 0.0 | |||||||
| 05 | 05:15 | E 5 | 10.00 | Overcast | BKN007 BKN014 OVC020 | 68 | 66.2 | 94% | 29.97 | 0.0 | |||||||
| 05 | 04:55 | SE 6 | 10.00 | Overcast | BKN007 BKN013 OVC018 | 68 | 66.2 | 94% | 29.97 | 0.0 | |||||||
| 05 | 04:35 | E 8 | 10.00 | Overcast | BKN009 OVC014 | 69.8 | 68 | 94% | 29.96 | 0.0 | |||||||
| 05 | 04:15 | E 6 | 10.00 | Overcast | BKN007 OVC015 | 69.8 | 68 | 94% | 29.96 | 0.0 | |||||||
| 05 | 03:55 | Vrbl 7 | 10.00 | Overcast | FEW009 BKN015 OVC022 | 69.8 | 68 | 94% | 29.96 | 0.0 | |||||||
| 05 | 03:35 | Vrbl 3 | 10.00 | Overcast | BKN017 OVC027 | 69.8 | 68 | 94% | 29.96 | 0.0 | |||||||
| 05 | 03:15 | E 3 | 10.00 | Overcast | OVC027 | 69.8 | 68 | 94% | 29.96 | 0.0 | |||||||
| 05 | 02:55 | NE 5 | 10.00 | Overcast | BKN027 OVC032 | 69.8 | 68 | 94% | 29.96 | 0.0 | |||||||
| 05 | 02:35 | Vrbl 3 | 10.00 | Overcast | OVC031 | 69.8 | 68 | 94% | 29.95 | 0.0 | |||||||
| 05 | 02:15 | Vrbl 2 | 10.00 | Overcast | BKN031 OVC044 | 69.8 | 68 | 94% | 29.95 | 0.0 | |||||||
| 05 | 01:55 | Vrbl 3 | 10.00 | Overcast | SCT031 BKN042 OVC050 | 69.8 | 69.8 | 73.6 | 70.3 | 100% | 29.95 | 0.0 | |||||
| 05 | 01:35 | E 7 | 10.00 | Overcast | OVC029 | 69.8 | 69.8 | 100% | 29.95 | 0.0 | |||||||
| 05 | 01:15 | Vrbl 6 | 10.00 | Overcast | OVC029 | 69.8 | 69.8 | 100% | 29.95 | 0.0 | |||||||
| 05 | 00:55 | E 6 | 10.00 | Overcast | OVC033 | 71.6 | 69.8 | 94% | 29.96 | 0.0 | |||||||
| 05 | 00:35 | Vrbl 3 | 10.00 | Overcast | OVC035 | 71.6 | 69.8 | 94% | 29.96 | 0.0 | |||||||
| 05 | 00:15 | E 5 | 10.00 | Overcast | OVC033 | 71.6 | 69.8 | 94% | 29.96 | 0.0 | |||||||
| 04 | 23:55 | Vrbl 6 | 10.00 | Overcast | BKN031 OVC037 | 71.6 | 69.8 | 94% | 29.96 | 0.0 | 0.01 | ||||||
| 04 | 23:35 | Vrbl 7 | 10.00 | Overcast | FEW015 OVC035 | 69.8 | 69.8 | 100% | 29.96 | 0.0 | |||||||
| 04 | 23:15 | NE 5 | 10.00 | Light Rain | SCT015 SCT028 BKN033 | 71.6 | 69.8 | 94% | 29.96 | 0.0 | |||||||
| 04 | 22:55 | SE 9 | 2.50 | Heavy Rain Fog/Mist | BKN028 BKN038 OVC120 | 71.6 | 69.8 | 94% | 29.96 | 0.0 | 0.23 | ||||||
| 04 | 22:35 | NE 5 | 4.00 | Heavy Rain Fog/Mist | OVC028 | 71.6 | 69.8 | 94% | 29.98 | 0.0 | |||||||
| 04 | 22:15 | Vrbl 2 | 10.00 | Overcast | OVC028 | 71.6 | 69.8 | 94% | 29.97 | 0.0 | |||||||
| 04 | 21:55 | SE 5 | 10.00 | Overcast | OVC030 | 73.4 | 69.8 | 89% | 29.96 | 0.0 | |||||||
| 04 | 21:35 | E 2 | 10.00 | Overcast | OVC032 | 73.4 | 69.8 | 89% | 29.96 | 0.0 | |||||||
| 04 | 21:15 | E 3 | 10.00 | Overcast | OVC032 | 73.4 | 69.8 | 89% | 29.96 | 0.0 | |||||||
| 04 | 20:55 | Vrbl 1 | 10.00 | Overcast | BKN032 BKN046 OVC075 | 71.6 | 69.8 | 94% | 29.96 | 0.0 | |||||||
| 04 | 20:35 | Vrbl 1 | 10.00 | Mostly Cloudy | SCT046 SCT055 BKN075 | 71.6 | 68 | 88% | 29.96 | 0.0 | |||||||
| 04 | 20:15 | Vrbl 2 | 10.00 | Mostly Cloudy | FEW055 BKN075 | 73.4 | 68 | 83% | 29.95 | 0.0 | |||||||
| 04 | 19:55 | NE 3 | 10.00 | Overcast | OVC075 | 73.4 | 68 | 79.9 | 73.4 | 83% | 29.95 | 0.0 | |||||
| 04 | 19:35 | NE 5 | 10.00 | Overcast | FEW037 FEW050 OVC065 | 73.4 | 68 | 83% | 29.95 | 0.0 | |||||||
| 04 | 19:15 | NE 3 | 10.00 | Overcast | BKN037 OVC050 | 73.4 | 69.8 | 89% | 29.95 | 0.0 | |||||||
| 04 | 18:55 | N 6 | 10.00 | Overcast | OVC037 | 75.2 | 69.8 | 83% | 75 | 29.94 | 0.0 | ||||||
| 04 | 18:35 | NE 5 | 10.00 | Overcast | OVC037 | 75.2 | 69.8 | 83% | 75 | 29.94 | 0.0 | ||||||
| 04 | 18:15 | N 5 | 10.00 | Overcast | OVC037 | 75.2 | 68 | 78% | 76 | 29.93 | 0.0 | ||||||
| 04 | 17:55 | W 5 | 10.00 | Overcast | OVC035 | 77 | 68 | 74% | 79 | 29.93 | 0.0 | ||||||
| 04 | 17:35 | NW 5 | 10.00 | Overcast | SCT035 OVC050 | 78.8 | 68 | 70% | 81 | 29.92 | 0.0 | ||||||
| 04 | 17:15 | Calm | 10.00 | Overcast | OVC048 | 77 | 68 | 74% | 79 | 29.93 | 0.0 | ||||||
| 04 | 16:55 | W 5 | 10.00 | Overcast | OVC050 | 78.8 | 68 | 70% | 81 | 29.93 | 0.0 | ||||||
| 04 | 16:35 | W 3 | 10.00 | Overcast | OVC050 | 77 | 68 | 74% | 79 | 29.94 | 0.0 | ||||||
| 04 | 16:15 | NW 7 | 10.00 | Mostly Cloudy | BKN048 | 78.8 | 68 | 70% | 81 | 29.95 | 0.0 | ||||||
| 04 | 15:55 | W 6 | 10.00 | Overcast | OVC046 | 78.8 | 69.8 | 74% | 81 | 29.95 | 0.0 | ||||||
| 04 | 15:35 | SW 3 | 10.00 | Overcast | OVC044 | 78.8 | 69.8 | 74% | 81 | 29.95 | 0.0 | ||||||
| 04 | 15:15 | W 7 | 10.00 | Overcast | OVC042 | 77 | 69.8 | 79% | 79 | 29.95 | 0.0 | ||||||
| 04 | 14:55 | W 7 | 10.00 | Overcast | OVC040 | 77 | 69.8 | 79% | 79 | 29.95 | 0.0 | ||||||
| 04 | 14:35 | W 7 | 10.00 | Overcast | FEW027 OVC040 | 77 | 68 | 74% | 79 | 29.94 | 0.0 | ||||||
| 04 | 14:15 | W 8 | 10.00 | Overcast | OVC040 | 77 | 68 | 74% | 79 | 29.94 | 0.0 | ||||||
| 04 | 13:55 | Vrbl 5 | 10.00 | Overcast | SCT018 SCT024 OVC040 | 77 | 66.2 | 78.1 | 68 | 69% | 79 | 29.94 | 0.0 | ||||
| 04 | 13:35 | Vrbl 3 | 10.00 | Overcast | BKN016 OVC024 | 77 | 69.8 | 79% | 79 | 29.94 | 0.0 | ||||||
| 04 | 13:15 | Vrbl 1 | 10.00 | Overcast | BKN016 OVC025 | 75.2 | 69.8 | 83% | 75 | 29.94 | 0.0 | ||||||
| 04 | 12:55 | W 5 | 10.00 | Overcast | SCT013 OVC025 | 77 | 71.6 | 83% | 78 | 29.95 | 0.0 | ||||||
| 04 | 12:35 | SE 3 | 10.00 | Mostly Cloudy | SCT013 BKN025 BKN070 | 75.2 | 69.8 | 83% | 75 | 29.95 | 0.0 | ||||||
| 04 | 12:15 | Vrbl 1 | 10.00 | Mostly Cloudy | SCT011 BKN060 | 75.2 | 69.8 | 83% | 75 | 29.95 | 0.0 | ||||||
| 04 | 11:55 | E 3 | 10.00 | Overcast | FEW007 FEW011 OVC060 | 73.4 | 69.8 | 89% | 29.95 | 0.0 | |||||||
| 04 | 11:35 | SE 2 | 10.00 | Overcast | OVC060 | 73.4 | 69.8 | 89% | 29.95 | 0.0 | |||||||
| 04 | 11:15 | Calm | 10.00 | Partly Cloudy | SCT060 | 73.4 | 69.8 | 89% | 29.96 | 0.0 | |||||||
| 04 | 10:55 | NE 1 | 10.00 | A Few Clouds | FEW004 | 71.6 | 69.8 | 94% | 29.96 | 0.0 | |||||||
| 04 | 10:35 | Vrbl 2 | 8.00 | Partly Cloudy | SCT013 | 71.6 | 69.8 | 94% | 29.95 | 0.0 | |||||||
| 04 | 10:15 | Calm | 10.00 | Mostly Cloudy | BKN013 | 69.8 | 69.8 | 100% | 29.96 | 0.0 | |||||||
| 04 | 09:55 | SE 3 | 10.00 | Fair | CLR | 69.8 | 69.8 | 100% | 29.95 | 0.0 | |||||||
| 04 | 09:35 | E 2 | 10.00 | A Few Clouds | FEW029 | 69.8 | 69.8 | 100% | 29.96 | 0.0 | |||||||
| 04 | 09:15 | N 2 | 6.00 | Fog/Mist | FEW019 BKN029 | 69.8 | 69.8 | 100% | 29.96 | 0.0 | |||||||
| 04 | 08:55 | SE 1 | 7.00 | Mostly Cloudy | BKN022 BKN027 BKN041 | 68 | 68 | 100% | 29.94 | 0.0 | |||||||
| 04 | 08:35 | W 3 | 5.00 | Fog/Mist | FEW024 SCT032 SCT039 | 68 | 68 | 100% | 29.95 | 0.0 | |||||||
| 04 | 08:15 | Vrbl 3 | 10.00 | Mostly Cloudy | BKN032 BKN039 | 69.8 | 68 | 94% | 29.93 | 0.0 | |||||||
| 04 | 07:55 | E 2 | 8.00 | Mostly Cloudy | FEW001 BKN036 | 68 | 68 | 68.4 | 65.7 | 100% | 29.94 | 0.0 | 0.01 | ||||
| 04 | 07:35 | S 5 | 4.00 | Fog/Mist | FEW001 BKN038 BKN044 | 68 | 66.2 | 94% | 29.94 | 0.0 | |||||||
| 04 | 07:15 | Calm | 6.00 | Fog/Mist | OVC038 | 68 | 66.2 | 94% | 29.95 | 0.0 | |||||||
| 04 | 06:55 | S 3 | 6.00 | Light Rain Fog/Mist | OVC040 | 68 | 68 | 100% | 29.95 | 0.0 | |||||||
| 04 | 06:35 | Calm | 8.00 | Mostly Cloudy | BKN042 BKN048 BKN050 | 68 | 68 | 100% | 29.95 | 0.0 | |||||||
| 04 | 06:15 | N 2 | 8.00 | Light Rain | SCT048 SCT050 BKN120 | 68 | 68 | 100% | 29.96 | 0.0 | |||||||
| 04 | 05:55 | NW 3 | 6.00 | Light Rain Fog/Mist | FEW060 SCT100 BKN120 | 68 | 66.2 | 94% | 29.94 | 0.0 | 0.03 | ||||||
| 04 | 05:35 | E 2 | 4.00 | Light Rain Fog/Mist | FEW090 OVC110 | 68 | 66.2 | 94% | 29.93 | 0.0 | |||||||
| 04 | 05:15 | Vrbl 1 | 10.00 | Mostly Cloudy | BKN120 | 68 | 68 | 100% | 29.96 | 0.0 | |||||||
| 04 | 04:55 | W 3 | 9.00 | Partly Cloudy | SCT120 | 66.2 | 66.2 | 100% | 29.94 | 0.0 | |||||||
| 04 | 04:35 | N 2 | 9.00 | Mostly Cloudy | BKN120 | 66.2 | 66.2 | 100% | 29.93 | 0.0 | |||||||
| 04 | 04:15 | W 2 | 10.00 | Fair | CLR | 66.2 | 66.2 | 100% | 29.92 | 0.0 | |||||||
| 04 | 03:55 | Vrbl 2 | 8.00 | Fair | CLR | 66.2 | 66.2 | 100% | 29.93 | 0.0 | |||||||
| 04 | 03:35 | Calm | 1.25 | Fog/Mist | CLR | 66.2 | 66.2 | 100% | 29.91 | 0.0 | |||||||
| 04 | 03:15 | Vrbl 1 | 8.00 | A Few Clouds | FEW014 FEW090 | 66.2 | 66.2 | 100% | 29.92 | 0.0 | |||||||
| 04 | 02:55 | NW 2 | 7.00 | Fog/Mist | CLR | 66.2 | 66.2 | 100% | 29.94 | 0.0 | |||||||
| 04 | 02:35 | E 1 | 8.00 | Fair | CLR | 66.2 | 66.2 | 100% | 29.95 | 0.0 | |||||||
| 04 | 02:15 | N 2 | 0.75 | Fog/Mist | VV005 | 66.2 | 66.2 | 100% | 29.95 | 0.0 | |||||||
| 04 | 01:55 | Calm | 8.00 | Fair | CLR | 68 | 66.2 | 72.5 | 65.8 | 94% | 29.95 | 0.0 | |||||
| 04 | 01:35 | W 2 | 8.00 | Fair | CLR | 66.2 | 66.2 | 100% | 29.96 | 0.0 | |||||||
| 04 | 01:15 | S 5 | 9.00 | Fair | CLR | 66.2 | 66.2 | 100% | 29.96 | 0.0 | |||||||
| 04 | 00:55 | Vrbl 1 | 10.00 | Fair | CLR | 68 | 68 | 100% | 29.97 | 0.0 | |||||||
| 04 | 00:35 | NW 1 | 9.00 | Fair | CLR | 68 | 68 | 100% | 29.96 | 0.0 | |||||||
| 04 | 00:15 | SW 1 | 9.00 | Fair | CLR | 68 | 66.2 | 94% | 29.97 | 0.0 | |||||||
| 03 | 23:55 | W 2 | 6.00 | Fog/Mist | SCT120 | 66.2 | 66.2 | 100% | 29.98 | 0.0 | |||||||
| 03 | 23:35 | Calm | 10.00 | Partly Cloudy | FEW095 SCT120 | 66.2 | 66.2 | 100% | 29.98 | 0.0 | |||||||
| 03 | 23:15 | Vrbl 1 | 10.00 | Mostly Cloudy | BKN085 | 68 | 68 | 100% | 29.98 | 0.0 | |||||||
| 03 | 22:55 | NW 1 | 7.00 | Mostly Cloudy | BKN085 | 66.2 | 66.2 | 100% | 29.97 | 0.0 | |||||||
| 03 | 22:35 | Calm | 1.25 | Fog/Mist | SCT001 BKN085 | 66.2 | 66.2 | 100% | 29.96 | 0.0 | |||||||
| 03 | 22:15 | Vrbl 3 | 1.50 | Fog/Mist | SCT001 SCT085 | 68 | 68 | 100% | 29.95 | 0.0 | |||||||
| 03 | 21:55 | Calm | 5.00 | Fog/Mist | CLR | 68 | 68 | 100% | 29.96 | 0.0 | |||||||
| 03 | 21:35 | Vrbl 1 | 3.00 | Fog/Mist | CLR | 68 | 68 | 100% | 29.96 | 0.0 | |||||||
| 03 | 21:15 | Calm | 10.00 | A Few Clouds | FEW010 | 68 | 68 | 100% | 29.95 | 0.0 | |||||||
| 03 | 20:55 | Calm | 6.00 | Fog/Mist | CLR | 68 | 68 | 100% | 29.94 | 0.0 | |||||||
| 03 | 20:35 | NE 3 | 10.00 | Fair | CLR | 69.8 | 68 | 94% | 29.94 | 0.0 | |||||||
| 03 | 20:15 | NE 2 | 10.00 | A Few Clouds | FEW015 | 69.8 | 69.8 | 100% | 29.94 | 0.0 | |||||||
| 03 | 19:55 | Calm | 10.00 | Mostly Cloudy | BKN015 | 71.6 | 69.8 | 73.8 | 68.4 | 94% | 29.94 | 0.0 | |||||
| 03 | 19:35 | Vrbl 1 | 10.00 | Overcast | OVC013 | 73.4 | 69.8 | 89% | 29.94 | 0.0 | |||||||
| 03 | 19:15 | W 3 | 10.00 | Overcast | OVC011 | 73.4 | 69.8 | 89% | 29.93 | 0.0 | |||||||
| 03 | 18:55 | Vrbl 2 | 10.00 | Overcast | OVC011 | 73.4 | 69.8 | 89% | 29.93 | 0.0 | |||||||
| 03 | 18:35 | S 3 | 10.00 | Mostly Cloudy | BKN009 | 73.4 | 69.8 | 89% | 29.92 | 0.0 | |||||||
| 03 | 18:15 | S 6 | 10.00 | Partly Cloudy | SCT021 | 73.4 | 69.8 | 89% | 29.91 | 0.0 | |||||||
| 03 | 17:55 | W 3 | 10.00 | Overcast | SCT016 OVC022 | 73.4 | 69.8 | 89% | 29.92 | 0.0 | |||||||
| 03 | 17:35 | W 5 | 10.00 | Overcast | OVC014 | 71.6 | 69.8 | 94% | 29.93 | 0.0 | |||||||
| 03 | 17:15 | SW 5 | 10.00 | Overcast | OVC008 | 71.6 | 68 | 88% | 29.92 | 0.0 | |||||||
| 03 | 16:55 | S 3 | 10.00 | Overcast | OVC008 | 71.6 | 69.8 | 94% | 29.92 | 0.0 | |||||||
| 03 | 16:35 | Vrbl 5 | 10.00 | Mostly Cloudy | BKN008 | 71.6 | 68 | 88% | 29.93 | 0.0 | |||||||
| 03 | 16:15 | Vrbl 3 | 9.00 | Mostly Cloudy | BKN008 | 71.6 | 68 | 88% | 29.92 | 0.0 | |||||||
| 03 | 15:55 | Vrbl 5 | 10.00 | Mostly Cloudy | BKN006 | 71.6 | 68 | 88% | 29.92 | 0.0 | |||||||
| 03 | 15:35 | Vrbl 2 | 10.00 | Mostly Cloudy | BKN006 BKN033 | 69.8 | 68 | 94% | 29.92 | 0.0 | |||||||
| 03 | 15:15 | E 10 | 10.00 | Light Rain | FEW006 FEW033 SCT070 | 69.8 | 68 | 94% | 29.9 | 0.0 | |||||||
| 03 | 14:55 | E 7 | 10.00 | Partly Cloudy | FEW006 FEW038 SCT100 | 69.8 | 68 | 94% | 29.92 | 0.0 | 0.01 | ||||||
| 03 | 14:35 | SE 6 | 10.00 | Mostly Cloudy | SCT039 SCT048 BKN090 | 69.8 | 68 | 94% | 29.95 | 0.0 | |||||||
| 03 | 14:15 | E 8 | 10.00 | Light Rain | SCT040 BKN050 BKN080 | 69.8 | 68 | 94% | 29.96 | 0.0 | |||||||
| 03 | 13:55 | NE 7 | 5.00 | Rain Fog/Mist | SCT029 BKN046 OVC070 | 68 | 68 | 73.9 | 62.8 | 100% | 29.98 | 0.0 | 0.15 | ||||
| 03 | 13:35 | E 5 | 4.00 | Rain Fog/Mist | SCT010 BKN027 OVC037 | 68 | 68 | 100% | 30 | 0.0 | |||||||
| 03 | 13:15 | N 3 | 7.00 | Light Rain Fog/Mist | FEW012 BKN035 OVC043 | 69.8 | 68 | 94% | 30 | 0.0 | |||||||
| 03 | 12:55 | Vrbl 2 | 10.00 | Light Rain | SCT044 SCT049 BKN065 | 69.8 | 68 | 94% | 29.97 | 0.0 | 0.18 | ||||||
| 03 | 12:35 | E 3 | 0.75 | Heavy Rain Fog/Mist | SCT018 OVC041 | 69.8 | 68 | 94% | 29.95 | 0.0 | |||||||
| 03 | 12:15 | SW 3 | 10.00 | Light Rain | OVC039 | 69.8 | 68 | 94% | 29.96 | 0.0 | |||||||
| 03 | 11:55 | Vrbl 1 | 10.00 | Overcast | OVC039 | 69.8 | 68 | 94% | 29.94 | 0.0 | 0.01 | ||||||
| 03 | 11:35 | Vrbl 1 | 10.00 | Overcast | BKN037 BKN046 OVC060 | 71.6 | 66.2 | 83% | 29.93 | 0.0 | |||||||
| 03 | 11:15 | NE 3 | 9.00 | Light Rain | BKN037 OVC060 | 71.6 | 66.2 | 83% | 29.92 | 0.0 | |||||||
| 03 | 10:55 | E 3 | 10.00 | Light Rain | SCT035 OVC070 | 71.6 | 64.4 | 78% | 29.93 | 0.0 | |||||||
| 03 | 10:35 | Vrbl 3 | 10.00 | Mostly Cloudy | BKN060 | 73.4 | 64.4 | 74% | 29.92 | 0.0 | |||||||
| 03 | 10:15 | E 5 | 10.00 | Partly Cloudy | SCT060 SCT070 | 73.4 | 62.6 | 69% | 29.93 | 0.0 | |||||||
| 03 | 09:55 | Vrbl 3 | 10.00 | Mostly Cloudy | SCT060 BKN075 BKN085 | 71.6 | 62.6 | 73% | 29.93 | 0.0 | |||||||
| 03 | 09:35 | Vrbl 2 | 10.00 | Mostly Cloudy | SCT065 BKN080 BKN120 | 69.8 | 62.6 | 78% | 29.93 | 0.0 | |||||||
| 03 | 09:15 | SE 3 | 10.00 | Partly Cloudy | SCT065 SCT080 | 69.8 | 62.6 | 78% | 29.94 | 0.0 | |||||||
| 03 | 08:55 | Vrbl 2 | 10.00 | A Few Clouds | FEW065 | 69.8 | 62.6 | 78% | 29.94 | 0.0 | |||||||
| 03 | 08:35 | Vrbl 1 | 10.00 | Fair | CLR | 66.2 | 62.6 | 88% | 29.95 | 0.0 | |||||||
| 03 | 08:15 | S 3 | 10.00 | Fair | CLR | 66.2 | 62.6 | 88% | 29.95 | 0.0 | |||||||
| 03 | 07:55 | Vrbl 1 | 10.00 | Fair | CLR | 62.6 | 62.6 | 66 | 60.6 | 100% | 29.94 | 0.0 | |||||
| 03 | 07:35 | Calm | 10.00 | A Few Clouds | FEW110 | 64.4 | 60.8 | 88% | 29.95 | 0.0 | |||||||
| 03 | 07:15 | Vrbl 3 | 10.00 | Partly Cloudy | FEW046 SCT100 | 64.4 | 60.8 | 88% | 29.94 | 0.0 | |||||||
| 03 | 06:55 | Calm | 10.00 | Mostly Cloudy | FEW046 BKN100 | 62.6 | 60.8 | 94% | 29.94 | 0.0 | |||||||
| 03 | 06:35 | Calm | 10.00 | Partly Cloudy | SCT100 | 62.6 | 62.6 | 100% | 29.94 | 0.0 | |||||||
| 03 | 06:15 | Vrbl 3 | 10.00 | Fair | CLR | 64.4 | 62.6 | 94% | 29.94 | 0.0 | |||||||
| 03 | 05:55 | Calm | 10.00 | Fair | CLR | 60.8 | 60.8 | 100% | 29.94 | 0.0 | |||||||
| 03 | 05:35 | NW 1 | 10.00 | Fair | CLR | 60.8 | 60.8 | 100% | 29.94 | 0.0 | |||||||
| 03 | 05:15 | W 1 | 9.00 | Fair | CLR | 60.8 | 60.8 | 100% | 29.94 | 0.0 | |||||||
| 03 | 04:55 | NW 2 | 10.00 | Fair | CLR | 60.8 | 60.8 | 100% | 29.93 | 0.0 | |||||||
| 03 | 04:35 | Vrbl 1 | 10.00 | Fair | CLR | 62.6 | 60.8 | 94% | 29.94 | 0.0 | |||||||
| 03 | 04:15 | Calm | 10.00 | A Few Clouds | FEW080 | 60.8 | 60.8 | 100% | 29.94 | 0.0 | |||||||
| 03 | 03:55 | Calm | 10.00 | Partly Cloudy | SCT080 | 60.8 | 60.8 | 100% | 29.93 | 0.0 | |||||||
| 03 | 03:35 | Calm | 10.00 | Fair | CLR | 60.8 | 60.8 | 100% | 29.93 | 0.0 | |||||||
| 03 | 03:15 | N 2 | 10.00 | Fair | CLR | 62.6 | 60.8 | 94% | 29.92 | 0.0 | |||||||
| 03 | 02:55 | Calm | 10.00 | Fair | CLR | 60.8 | 60.8 | 100% | 29.92 | 0.0 | |||||||
| 03 | 02:35 | Calm | 7.00 | Fog/Mist | CLR | 60.8 | 60.8 | 100% | 29.92 | 0.0 | |||||||
| 03 | 02:15 | NE 1 | 10.00 | Fair | CLR | 60.8 | 60.8 | 100% | 29.93 | 0.0 | |||||||
| 03 | 01:55 | N 1 | 4.00 | Fog/Mist | CLR | 60.8 | 60.8 | 73.2 | 61.5 | 100% | 29.92 | 0.0 | |||||
| 03 | 01:35 | S 1 | 10.00 | Fair | CLR | 62.6 | 60.8 | 94% | 29.92 | 0.0 | |||||||
| 03 | 01:15 | S 1 | 7.00 | Fair | CLR | 62.6 | 60.8 | 94% | 29.92 | 0.0 | |||||||
| 03 | 00:55 | W 1 | 10.00 | Fair | CLR | 62.6 | 60.8 | 94% | 29.93 | 0.0 | |||||||
| 03 | 00:35 | Calm | 10.00 | Fair | CLR | 62.6 | 60.8 | 94% | 29.93 | 0.0 | |||||||
| 03 | 00:15 | SE 1 | 8.00 | Fair | CLR | 62.6 | 60.8 | 94% | 29.93 | 0.0 | |||||||
| 02 | 23:55 | N 1 | 10.00 | Fair | CLR | 62.6 | 62.6 | 100% | 29.92 | 0.0 | |||||||
| Date | Time (edt) | Wind (mph) | Vis. (mi.) | Weather | Sky Cond. | Air | Dwpt | Max. | Min. | Relative Humidity | Wind Chill (°F) | Heat Index (°F) | altimeter (in) | sea level (mb) | 1 hr | 3 hr | 6 hr |
| 6 hour | |||||||||||||||||
| Temperature (ºF) | Pressure | Precipitation (in) | |||||||||||||||